sensor_id;sensor_type;location;lat;lon;timestamp;P1;durP1;ratioP1;P2;durP2;ratioP2
19687;SDS011;9993;52.008;4.732;2023-04-03T00:12:43;2.20;;;2.00;;
19687;SDS011;9993;52.008;4.732;2023-04-03T00:15:26;2.77;;;2.03;;
19687;SDS011;9993;52.008;4.732;2023-04-03T00:18:04;4.13;;;2.23;;
19687;SDS011;9993;52.008;4.732;2023-04-03T00:20:42;3.00;;;2.20;;
19687;SDS011;9993;52.008;4.732;2023-04-03T00:23:07;4.07;;;2.57;;
19687;SDS011;9993;52.008;4.732;2023-04-03T00:25:42;2.60;;;2.20;;
19687;SDS011;9993;52.008;4.732;2023-04-03T00:28:25;3.67;;;2.43;;
19687;SDS011;9993;52.008;4.732;2023-04-03T00:31:14;4.03;;;2.57;;
19687;SDS011;9993;52.008;4.732;2023-04-03T00:33:48;3.47;;;2.50;;
19687;SDS011;9993;52.008;4.732;2023-04-03T00:36:52;2.77;;;2.17;;
19687;SDS011;9993;52.008;4.732;2023-04-03T00:39:34;2.70;;;2.50;;
19687;SDS011;9993;52.008;4.732;2023-04-03T00:42:14;4.43;;;2.60;;
19687;SDS011;9993;52.008;4.732;2023-04-03T00:47:20;4.33;;;2.40;;
19687;SDS011;9993;52.008;4.732;2023-04-03T00:49:45;2.30;;;2.10;;
19687;SDS011;9993;52.008;4.732;2023-04-03T00:52:46;4.53;;;2.33;;
19687;SDS011;9993;52.008;4.732;2023-04-03T00:55:23;2.93;;;2.40;;
19687;SDS011;9993;52.008;4.732;2023-04-03T00:58:07;3.17;;;2.17;;
19687;SDS011;9993;52.008;4.732;2023-04-03T01:00:46;2.40;;;2.23;;
19687;SDS011;9993;52.008;4.732;2023-04-03T01:03:24;2.40;;;2.20;;
19687;SDS011;9993;52.008;4.732;2023-04-03T01:09:00;2.93;;;2.33;;
19687;SDS011;9993;52.008;4.732;2023-04-03T01:11:38;2.23;;;2.03;;
19687;SDS011;9993;52.008;4.732;2023-04-03T01:14:18;2.57;;;2.37;;
19687;SDS011;9993;52.008;4.732;2023-04-03T01:17:01;2.70;;;2.50;;
19687;SDS011;9993;52.008;4.732;2023-04-03T01:19:27;4.03;;;2.10;;
19687;SDS011;9993;52.008;4.732;2023-04-03T01:25:18;3.10;;;2.07;;
19687;SDS011;9993;52.008;4.732;2023-04-03T01:27:49;2.40;;;2.20;;
19687;SDS011;9993;52.008;4.732;2023-04-03T01:30:14;2.23;;;2.10;;
19687;SDS011;9993;52.008;4.732;2023-04-03T01:48:12;2.80;;;2.60;;
19687;SDS011;9993;52.008;4.732;2023-04-03T01:50:37;4.13;;;2.30;;
19687;SDS011;9993;52.008;4.732;2023-04-03T01:53:02;4.63;;;2.90;;
19687;SDS011;9993;52.008;4.732;2023-04-03T01:55:27;2.67;;;2.47;;
19687;SDS011;9993;52.008;4.732;2023-04-03T01:57:52;3.10;;;2.63;;
19687;SDS011;9993;52.008;4.732;2023-04-03T02:00:18;4.77;;;2.50;;
19687;SDS011;9993;52.008;4.732;2023-04-03T02:02:43;3.63;;;2.70;;
19687;SDS011;9993;52.008;4.732;2023-04-03T02:05:11;2.97;;;2.53;;
19687;SDS011;9993;52.008;4.732;2023-04-03T02:07:36;3.00;;;2.70;;
19687;SDS011;9993;52.008;4.732;2023-04-03T02:10:02;5.40;;;2.57;;
19687;SDS011;9993;52.008;4.732;2023-04-03T02:12:27;2.97;;;2.50;;
19687;SDS011;9993;52.008;4.732;2023-04-03T02:14:52;3.27;;;2.93;;
19687;SDS011;9993;52.008;4.732;2023-04-03T02:17:17;4.90;;;2.67;;
19687;SDS011;9993;52.008;4.732;2023-04-03T02:19:42;2.60;;;2.40;;
19687;SDS011;9993;52.008;4.732;2023-04-03T02:22:08;4.63;;;2.77;;
19687;SDS011;9993;52.008;4.732;2023-04-03T02:24:33;3.37;;;2.50;;
19687;SDS011;9993;52.008;4.732;2023-04-03T02:26:58;2.73;;;2.43;;
19687;SDS011;9993;52.008;4.732;2023-04-03T02:29:59;3.27;;;2.33;;
19687;SDS011;9993;52.008;4.732;2023-04-03T02:32:24;3.23;;;2.53;;
19687;SDS011;9993;52.008;4.732;2023-04-03T02:35:05;4.80;;;3.10;;
19687;SDS011;9993;52.008;4.732;2023-04-03T02:37:36;2.73;;;2.53;;
19687;SDS011;9993;52.008;4.732;2023-04-03T02:40:24;4.70;;;2.60;;
19687;SDS011;9993;52.008;4.732;2023-04-03T02:46:07;2.70;;;2.50;;
19687;SDS011;9993;52.008;4.732;2023-04-03T02:51:34;3.93;;;2.30;;
19687;SDS011;9993;52.008;4.732;2023-04-03T03:00:11;4.93;;;2.60;;
19687;SDS011;9993;52.008;4.732;2023-04-03T03:02:48;2.30;;;2.10;;
19687;SDS011;9993;52.008;4.732;2023-04-03T03:11:21;2.80;;;2.43;;
19687;SDS011;9993;52.008;4.732;2023-04-03T03:14:01;5.30;;;3.07;;
19687;SDS011;9993;52.008;4.732;2023-04-03T03:19:05;4.17;;;3.10;;
19687;SDS011;9993;52.008;4.732;2023-04-03T03:27:39;4.83;;;2.90;;
19687;SDS011;9993;52.008;4.732;2023-04-03T03:36:13;4.10;;;2.50;;
19687;SDS011;9993;52.008;4.732;2023-04-03T03:38:39;5.10;;;3.23;;
19687;SDS011;9993;52.008;4.732;2023-04-03T03:41:05;6.67;;;2.90;;
19687;SDS011;9993;52.008;4.732;2023-04-03T03:43:45;2.90;;;2.70;;
19687;SDS011;9993;52.008;4.732;2023-04-03T03:46:23;3.37;;;2.93;;
19687;SDS011;9993;52.008;4.732;2023-04-03T03:49:18;3.60;;;2.90;;
19687;SDS011;9993;52.008;4.732;2023-04-03T03:55:03;3.70;;;2.60;;
19687;SDS011;9993;52.008;4.732;2023-04-03T03:57:28;3.13;;;2.83;;
19687;SDS011;9993;52.008;4.732;2023-04-03T03:59:54;4.30;;;2.80;;
19687;SDS011;9993;52.008;4.732;2023-04-03T04:02:19;2.70;;;2.47;;
19687;SDS011;9993;52.008;4.732;2023-04-03T04:05:03;5.83;;;3.30;;
19687;SDS011;9993;52.008;4.732;2023-04-03T04:07:44;4.53;;;3.23;;
19687;SDS011;9993;52.008;4.732;2023-04-03T04:10:15;3.10;;;2.80;;
19687;SDS011;9993;52.008;4.732;2023-04-03T04:12:40;4.40;;;3.40;;
19687;SDS011;9993;52.008;4.732;2023-04-03T04:15:24;3.63;;;2.27;;
19687;SDS011;9993;52.008;4.732;2023-04-03T04:17:50;4.50;;;3.00;;
19687;SDS011;9993;52.008;4.732;2023-04-03T04:20:18;4.53;;;3.20;;
19687;SDS011;9993;52.008;4.732;2023-04-03T04:23:01;5.60;;;3.07;;
19687;SDS011;9993;52.008;4.732;2023-04-03T04:25:48;4.10;;;3.03;;
19687;SDS011;9993;52.008;4.732;2023-04-03T04:28:18;3.47;;;3.17;;
19687;SDS011;9993;52.008;4.732;2023-04-03T04:30:46;5.53;;;2.60;;
19687;SDS011;9993;52.008;4.732;2023-04-03T04:33:28;3.67;;;3.00;;
19687;SDS011;9993;52.008;4.732;2023-04-03T04:36:09;4.93;;;3.03;;
19687;SDS011;9993;52.008;4.732;2023-04-03T04:38:42;2.97;;;2.77;;
19687;SDS011;9993;52.008;4.732;2023-04-03T04:41:16;7.07;;;3.57;;
19687;SDS011;9993;52.008;4.732;2023-04-03T04:44:02;3.80;;;3.20;;
19687;SDS011;9993;52.008;4.732;2023-04-03T04:46:40;3.47;;;2.70;;
19687;SDS011;9993;52.008;4.732;2023-04-03T04:49:16;5.33;;;3.00;;
19687;SDS011;9993;52.008;4.732;2023-04-03T04:51:42;5.53;;;3.00;;
19687;SDS011;9993;52.008;4.732;2023-04-03T04:54:09;3.30;;;3.00;;
19687;SDS011;9993;52.008;4.732;2023-04-03T04:56:37;3.77;;;3.17;;
19687;SDS011;9993;52.008;4.732;2023-04-03T04:59:02;3.33;;;2.97;;
19687;SDS011;9993;52.008;4.732;2023-04-03T05:01:28;4.27;;;3.63;;
19687;SDS011;9993;52.008;4.732;2023-04-03T05:04:06;6.47;;;3.70;;
19687;SDS011;9993;52.008;4.732;2023-04-03T05:06:37;3.63;;;3.23;;
19687;SDS011;9993;52.008;4.732;2023-04-03T05:09:02;3.73;;;3.13;;
19687;SDS011;9993;52.008;4.732;2023-04-03T05:11:28;3.70;;;3.13;;
19687;SDS011;9993;52.008;4.732;2023-04-03T05:13:59;5.27;;;3.57;;
19687;SDS011;9993;52.008;4.732;2023-04-03T05:16:35;6.20;;;3.70;;
19687;SDS011;9993;52.008;4.732;2023-04-03T05:19:20;4.77;;;3.00;;
19687;SDS011;9993;52.008;4.732;2023-04-03T05:24:45;5.00;;;3.67;;
19687;SDS011;9993;52.008;4.732;2023-04-03T05:27:26;6.63;;;3.60;;
19687;SDS011;9993;52.008;4.732;2023-04-03T05:29:53;3.77;;;2.70;;
19687;SDS011;9993;52.008;4.732;2023-04-03T05:32:19;5.10;;;3.70;;
19687;SDS011;9993;52.008;4.732;2023-04-03T05:35:04;3.53;;;3.17;;
19687;SDS011;9993;52.008;4.732;2023-04-03T05:40:39;5.13;;;3.40;;
19687;SDS011;9993;52.008;4.732;2023-04-03T05:43:12;4.30;;;3.87;;
19687;SDS011;9993;52.008;4.732;2023-04-03T05:45:40;7.87;;;4.07;;
19687;SDS011;9993;52.008;4.732;2023-04-03T05:51:22;4.07;;;3.43;;
19687;SDS011;9993;52.008;4.732;2023-04-03T06:06:02;7.17;;;3.60;;
19687;SDS011;9993;52.008;4.732;2023-04-03T06:17:48;3.27;;;2.97;;
19687;SDS011;9993;52.008;4.732;2023-04-03T06:23:22;5.83;;;3.70;;
19687;SDS011;9993;52.008;4.732;2023-04-03T06:26:10;7.20;;;3.83;;
19687;SDS011;9993;52.008;4.732;2023-04-03T06:35:32;3.97;;;3.37;;
19687;SDS011;9993;52.008;4.732;2023-04-03T06:38:23;4.77;;;3.60;;
19687;SDS011;9993;52.008;4.732;2023-04-03T06:41:03;3.90;;;3.10;;
19687;SDS011;9993;52.008;4.732;2023-04-03T06:43:31;7.07;;;3.23;;
19687;SDS011;9993;52.008;4.732;2023-04-03T06:46:01;5.67;;;3.33;;
19687;SDS011;9993;52.008;4.732;2023-04-03T06:48:29;3.97;;;3.30;;
19687;SDS011;9993;52.008;4.732;2023-04-03T06:51:10;6.77;;;3.43;;
19687;SDS011;9993;52.008;4.732;2023-04-03T06:53:42;4.17;;;3.17;;
19687;SDS011;9993;52.008;4.732;2023-04-03T06:59:27;5.33;;;3.67;;
19687;SDS011;9993;52.008;4.732;2023-04-03T07:02:03;5.10;;;2.97;;
19687;SDS011;9993;52.008;4.732;2023-04-03T07:13:18;5.87;;;3.10;;
19687;SDS011;9993;52.008;4.732;2023-04-03T07:40:02;3.67;;;2.97;;
19687;SDS011;9993;52.008;4.732;2023-04-03T07:42:49;3.00;;;2.60;;
19687;SDS011;9993;52.008;4.732;2023-04-03T07:45:15;6.10;;;3.40;;
19687;SDS011;9993;52.008;4.732;2023-04-03T07:50:51;2.50;;;2.30;;
19687;SDS011;9993;52.008;4.732;2023-04-03T07:53:17;2.80;;;2.50;;
19687;SDS011;9993;52.008;4.732;2023-04-03T07:59:04;7.93;;;2.83;;
19687;SDS011;9993;52.008;4.732;2023-04-03T08:07:10;3.70;;;2.30;;
19687;SDS011;9993;52.008;4.732;2023-04-03T08:15:42;4.77;;;2.60;;
19687;SDS011;9993;52.008;4.732;2023-04-03T08:18:07;2.63;;;2.37;;
19687;SDS011;9993;52.008;4.732;2023-04-03T08:20:42;3.33;;;2.47;;
19687;SDS011;9993;52.008;4.732;2023-04-03T08:23:19;4.63;;;2.70;;
19687;SDS011;9993;52.008;4.732;2023-04-03T08:31:40;4.03;;;2.90;;
19687;SDS011;9993;52.008;4.732;2023-04-03T08:37:13;4.13;;;2.87;;
19687;SDS011;9993;52.008;4.732;2023-04-03T08:39:41;2.40;;;2.20;;
19687;SDS011;9993;52.008;4.732;2023-04-03T08:48:17;4.43;;;2.17;;
19687;SDS011;9993;52.008;4.732;2023-04-03T08:51:04;5.07;;;2.30;;
19687;SDS011;9993;52.008;4.732;2023-04-03T08:53:59;2.30;;;2.10;;
19687;SDS011;9993;52.008;4.732;2023-04-03T08:56:25;4.30;;;2.30;;
19687;SDS011;9993;52.008;4.732;2023-04-03T09:01:44;3.50;;;2.30;;
19687;SDS011;9993;52.008;4.732;2023-04-03T09:10:30;3.37;;;2.07;;
19687;SDS011;9993;52.008;4.732;2023-04-03T09:30:51;2.00;;;1.57;;
19687;SDS011;9993;52.008;4.732;2023-04-03T09:33:36;2.03;;;1.83;;
19687;SDS011;9993;52.008;4.732;2023-04-03T09:42:22;1.80;;;1.50;;
19687;SDS011;9993;52.008;4.732;2023-04-03T10:15:10;1.63;;;1.53;;
19687;SDS011;9993;52.008;4.732;2023-04-03T10:28:11;1.50;;;1.40;;
19687;SDS011;9993;52.008;4.732;2023-04-03T11:15:23;1.20;;;1.20;;
19687;SDS011;9993;52.008;4.732;2023-04-03T11:17:59;1.30;;;1.30;;
19687;SDS011;9993;52.008;4.732;2023-04-03T11:20:29;1.30;;;1.30;;
19687;SDS011;9993;52.008;4.732;2023-04-03T11:23:02;1.90;;;1.40;;
19687;SDS011;9993;52.008;4.732;2023-04-03T11:25:29;1.17;;;1.17;;
19687;SDS011;9993;52.008;4.732;2023-04-03T11:27:56;1.50;;;1.40;;
19687;SDS011;9993;52.008;4.732;2023-04-03T11:30:28;1.10;;;1.10;;
19687;SDS011;9993;52.008;4.732;2023-04-03T11:33:02;1.17;;;1.10;;
19687;SDS011;9993;52.008;4.732;2023-04-03T11:35:31;1.20;;;1.20;;
19687;SDS011;9993;52.008;4.732;2023-04-03T11:37:57;1.20;;;1.10;;
19687;SDS011;9993;52.008;4.732;2023-04-03T11:40:27;1.20;;;1.10;;
19687;SDS011;9993;52.008;4.732;2023-04-03T11:42:55;1.15;;;1.10;;
19687;SDS011;9993;52.008;4.732;2023-04-03T11:45:30;1.25;;;1.20;;
19687;SDS011;9993;52.008;4.732;2023-04-03T11:47:58;1.30;;;1.20;;
19687;SDS011;9993;52.008;4.732;2023-04-03T12:04:48;1.25;;;1.15;;
19687;SDS011;9993;52.008;4.732;2023-04-03T12:07:43;1.55;;;1.10;;
19687;SDS011;9993;52.008;4.732;2023-04-03T12:10:17;1.13;;;1.13;;
19687;SDS011;9993;52.008;4.732;2023-04-03T12:13:19;1.40;;;1.30;;
19687;SDS011;9993;52.008;4.732;2023-04-03T12:16:04;1.25;;;1.15;;
19687;SDS011;9993;52.008;4.732;2023-04-03T12:21:16;1.73;;;1.10;;
19687;SDS011;9993;52.008;4.732;2023-04-03T12:26:42;1.52;;;1.42;;
19687;SDS011;9993;52.008;4.732;2023-04-03T12:46:38;1.92;;;1.70;;
19687;SDS011;9993;52.008;4.732;2023-04-03T13:00:47;2.38;;;1.65;;
19687;SDS011;9993;52.008;4.732;2023-04-03T13:03:24;1.67;;;1.58;;
19687;SDS011;9993;52.008;4.732;2023-04-03T13:05:51;1.80;;;1.65;;
19687;SDS011;9993;52.008;4.732;2023-04-03T13:08:17;2.33;;;1.73;;
19687;SDS011;9993;52.008;4.732;2023-04-03T13:10:53;1.70;;;1.60;;
19687;SDS011;9993;52.008;4.732;2023-04-03T13:13:19;1.80;;;1.70;;
19687;SDS011;9993;52.008;4.732;2023-04-03T13:15:46;1.95;;;1.60;;
19687;SDS011;9993;52.008;4.732;2023-04-03T13:20:48;1.92;;;1.83;;
19687;SDS011;9993;52.008;4.732;2023-04-03T13:23:14;2.83;;;1.52;;
19687;SDS011;9993;52.008;4.732;2023-04-03T13:25:43;2.20;;;1.55;;
19687;SDS011;9993;52.008;4.732;2023-04-03T13:28:10;1.73;;;1.63;;
19687;SDS011;9993;52.008;4.732;2023-04-03T13:30:37;3.78;;;1.90;;
19687;SDS011;9993;52.008;4.732;2023-04-03T13:33:03;1.70;;;1.60;;
19687;SDS011;9993;52.008;4.732;2023-04-03T13:37:59;1.77;;;1.50;;
19687;SDS011;9993;52.008;4.732;2023-04-03T13:40:25;1.90;;;1.67;;
19687;SDS011;9993;52.008;4.732;2023-04-03T13:43:00;2.75;;;1.70;;
19687;SDS011;9993;52.008;4.732;2023-04-03T13:45:27;2.28;;;1.63;;
19687;SDS011;9993;52.008;4.732;2023-04-03T13:48:05;3.08;;;1.85;;
19687;SDS011;9993;52.008;4.732;2023-04-03T13:50:31;1.60;;;1.50;;
19687;SDS011;9993;52.008;4.732;2023-04-03T13:53:00;1.67;;;1.58;;
19687;SDS011;9993;52.008;4.732;2023-04-03T13:55:27;1.60;;;1.50;;
19687;SDS011;9993;52.008;4.732;2023-04-03T13:57:56;1.23;;;1.20;;
19687;SDS011;9993;52.008;4.732;2023-04-03T14:00:27;2.08;;;1.65;;
19687;SDS011;9993;52.008;4.732;2023-04-03T14:02:54;1.95;;;1.77;;
19687;SDS011;9993;52.008;4.732;2023-04-03T14:05:19;1.70;;;1.60;;
19687;SDS011;9993;52.008;4.732;2023-04-03T14:07:46;1.90;;;1.70;;
19687;SDS011;9993;52.008;4.732;2023-04-03T14:10:11;2.17;;;1.50;;
19687;SDS011;9993;52.008;4.732;2023-04-03T14:12:37;1.60;;;1.50;;
19687;SDS011;9993;52.008;4.732;2023-04-03T14:15:27;2.38;;;1.92;;
19687;SDS011;9993;52.008;4.732;2023-04-03T14:17:49;2.03;;;1.83;;
19687;SDS011;9993;52.008;4.732;2023-04-03T14:20:16;1.55;;;1.42;;
19687;SDS011;9993;52.008;4.732;2023-04-03T14:22:42;2.17;;;1.50;;
19687;SDS011;9993;52.008;4.732;2023-04-03T14:25:07;2.92;;;1.70;;
19687;SDS011;9993;52.008;4.732;2023-04-03T14:27:34;2.80;;;1.50;;
19687;SDS011;9993;52.008;4.732;2023-04-03T14:30:00;1.70;;;1.60;;
19687;SDS011;9993;52.008;4.732;2023-04-03T14:32:28;2.05;;;1.77;;
19687;SDS011;9993;52.008;4.732;2023-04-03T14:34:53;2.00;;;1.80;;
19687;SDS011;9993;52.008;4.732;2023-04-03T14:37:20;1.67;;;1.58;;
19687;SDS011;9993;52.008;4.732;2023-04-03T14:39:45;1.95;;;1.83;;
19687;SDS011;9993;52.008;4.732;2023-04-03T14:42:18;1.70;;;1.60;;
19687;SDS011;9993;52.008;4.732;2023-04-03T14:44:43;2.22;;;1.50;;
19687;SDS011;9993;52.008;4.732;2023-04-03T14:47:10;1.98;;;1.63;;
19687;SDS011;9993;52.008;4.732;2023-04-03T14:49:35;1.75;;;1.65;;
19687;SDS011;9993;52.008;4.732;2023-04-03T14:52:00;2.33;;;1.90;;
19687;SDS011;9993;52.008;4.732;2023-04-03T14:54:26;3.28;;;1.50;;
19687;SDS011;9993;52.008;4.732;2023-04-03T14:56:54;3.58;;;1.75;;
19687;SDS011;9993;52.008;4.732;2023-04-03T14:59:20;2.80;;;2.25;;
19687;SDS011;9993;52.008;4.732;2023-04-03T15:01:46;1.60;;;1.50;;
19687;SDS011;9993;52.008;4.732;2023-04-03T15:04:13;3.03;;;1.33;;
19687;SDS011;9993;52.008;4.732;2023-04-03T15:06:38;2.30;;;2.10;;
19687;SDS011;9993;52.008;4.732;2023-04-03T15:09:26;2.22;;;1.60;;
19687;SDS011;9993;52.008;4.732;2023-04-03T15:14:57;1.80;;;1.70;;
19687;SDS011;9993;52.008;4.732;2023-04-03T15:26:20;2.10;;;1.90;;
19687;SDS011;9993;52.008;4.732;2023-04-03T15:28:58;2.63;;;2.10;;
19687;SDS011;9993;52.008;4.732;2023-04-03T15:35:01;2.53;;;2.30;;
19687;SDS011;9993;52.008;4.732;2023-04-03T15:37:45;2.07;;;1.90;;
19687;SDS011;9993;52.008;4.732;2023-04-03T15:40:36;2.07;;;1.87;;
19687;SDS011;9993;52.008;4.732;2023-04-03T15:43:25;2.43;;;2.00;;
19687;SDS011;9993;52.008;4.732;2023-04-03T15:49:19;3.47;;;2.20;;
19687;SDS011;9993;52.008;4.732;2023-04-03T15:55:05;4.10;;;2.90;;
19687;SDS011;9993;52.008;4.732;2023-04-03T15:57:41;2.10;;;2.00;;
19687;SDS011;9993;52.008;4.732;2023-04-03T16:00:15;2.90;;;2.40;;
19687;SDS011;9993;52.008;4.732;2023-04-03T16:11:57;2.67;;;2.10;;
19687;SDS011;9993;52.008;4.732;2023-04-03T16:14:45;2.97;;;2.23;;
19687;SDS011;9993;52.008;4.732;2023-04-03T16:17:27;2.03;;;1.83;;
19687;SDS011;9993;52.008;4.732;2023-04-03T16:19:53;2.13;;;1.90;;
19687;SDS011;9993;52.008;4.732;2023-04-03T16:22:23;2.57;;;2.20;;
19687;SDS011;9993;52.008;4.732;2023-04-03T16:25:01;3.67;;;2.13;;
19687;SDS011;9993;52.008;4.732;2023-04-03T16:27:27;2.83;;;2.30;;
19687;SDS011;9993;52.008;4.732;2023-04-03T16:30:04;2.17;;;2.07;;
19687;SDS011;9993;52.008;4.732;2023-04-03T16:32:45;2.17;;;2.00;;
19687;SDS011;9993;52.008;4.732;2023-04-03T16:35:22;1.97;;;1.87;;
19687;SDS011;9993;52.008;4.732;2023-04-03T16:37:50;2.30;;;2.00;;
19687;SDS011;9993;52.008;4.732;2023-04-03T16:40:20;2.40;;;2.00;;
19687;SDS011;9993;52.008;4.732;2023-04-03T16:49:41;2.90;;;2.30;;
19687;SDS011;9993;52.008;4.732;2023-04-03T16:52:17;2.77;;;2.10;;
19687;SDS011;9993;52.008;4.732;2023-04-03T17:00:37;1.87;;;1.77;;
19687;SDS011;9993;52.008;4.732;2023-04-03T17:09:26;5.70;;;2.20;;
19687;SDS011;9993;52.008;4.732;2023-04-03T17:11:51;2.50;;;2.30;;
19687;SDS011;9993;52.008;4.732;2023-04-03T17:14:16;3.27;;;2.20;;
19687;SDS011;9993;52.008;4.732;2023-04-03T17:19:47;2.60;;;2.27;;
19687;SDS011;9993;52.008;4.732;2023-04-03T17:22:15;5.07;;;2.30;;
19687;SDS011;9993;52.008;4.732;2023-04-03T17:52:32;4.83;;;2.87;;
19687;SDS011;9993;52.008;4.732;2023-04-03T18:00:31;4.03;;;2.10;;
19687;SDS011;9993;52.008;4.732;2023-04-03T18:03:00;3.73;;;2.70;;
19687;SDS011;9993;52.008;4.732;2023-04-03T18:08:45;4.60;;;2.53;;
19687;SDS011;9993;52.008;4.732;2023-04-03T18:20:31;2.87;;;2.40;;
19687;SDS011;9993;52.008;4.732;2023-04-03T18:29:42;2.80;;;2.57;;
19687;SDS011;9993;52.008;4.732;2023-04-03T18:35:38;2.90;;;2.50;;
19687;SDS011;9993;52.008;4.732;2023-04-03T18:44:33;3.83;;;2.47;;
19687;SDS011;9993;52.008;4.732;2023-04-03T18:56:28;3.07;;;2.00;;
19687;SDS011;9993;52.008;4.732;2023-04-03T19:07:42;3.87;;;2.50;;
19687;SDS011;9993;52.008;4.732;2023-04-03T19:35:23;3.53;;;2.47;;
19687;SDS011;9993;52.008;4.732;2023-04-03T20:05:17;2.67;;;2.20;;
19687;SDS011;9993;52.008;4.732;2023-04-03T20:07:58;3.47;;;2.30;;
19687;SDS011;9993;52.008;4.732;2023-04-03T20:17:26;2.50;;;2.27;;
19687;SDS011;9993;52.008;4.732;2023-04-03T20:22:56;2.63;;;2.40;;
19687;SDS011;9993;52.008;4.732;2023-04-03T20:25:42;3.93;;;2.37;;
19687;SDS011;9993;52.008;4.732;2023-04-03T20:28:48;2.17;;;2.07;;
19687;SDS011;9993;52.008;4.732;2023-04-03T21:00:18;3.90;;;3.00;;
19687;SDS011;9993;52.008;4.732;2023-04-03T21:29:40;3.10;;;2.80;;
19687;SDS011;9993;52.008;4.732;2023-04-03T21:32:31;3.00;;;2.60;;
19687;SDS011;9993;52.008;4.732;2023-04-03T21:35:05;3.57;;;2.73;;
19687;SDS011;9993;52.008;4.732;2023-04-03T21:38:00;3.30;;;2.50;;
19687;SDS011;9993;52.008;4.732;2023-04-03T21:40:25;4.33;;;2.00;;
19687;SDS011;9993;52.008;4.732;2023-04-03T21:42:54;5.67;;;2.30;;
19687;SDS011;9993;52.008;4.732;2023-04-03T21:56:20;3.67;;;2.70;;
19687;SDS011;9993;52.008;4.732;2023-04-03T22:05:08;5.50;;;3.07;;
19687;SDS011;9993;52.008;4.732;2023-04-03T22:13:39;2.97;;;2.50;;
19687;SDS011;9993;52.008;4.732;2023-04-03T22:19:28;3.53;;;2.70;;
19687;SDS011;9993;52.008;4.732;2023-04-03T22:22:18;3.77;;;2.97;;
19687;SDS011;9993;52.008;4.732;2023-04-03T22:25:05;3.00;;;2.70;;
19687;SDS011;9993;52.008;4.732;2023-04-03T22:37:01;3.57;;;2.53;;
19687;SDS011;9993;52.008;4.732;2023-04-03T22:39:48;3.10;;;2.80;;
19687;SDS011;9993;52.008;4.732;2023-04-03T22:42:16;5.70;;;3.10;;
19687;SDS011;9993;52.008;4.732;2023-04-03T22:47:49;5.17;;;2.90;;
19687;SDS011;9993;52.008;4.732;2023-04-03T22:50:34;2.93;;;2.63;;
19687;SDS011;9993;52.008;4.732;2023-04-03T23:02:45;4.57;;;3.10;;
19687;SDS011;9993;52.008;4.732;2023-04-03T23:05:13;4.97;;;3.20;;
19687;SDS011;9993;52.008;4.732;2023-04-03T23:07:38;4.60;;;3.40;;
19687;SDS011;9993;52.008;4.732;2023-04-03T23:13:27;3.33;;;3.00;;
19687;SDS011;9993;52.008;4.732;2023-04-03T23:16:04;4.37;;;3.27;;
19687;SDS011;9993;52.008;4.732;2023-04-03T23:24:41;2.80;;;2.60;;
19687;SDS011;9993;52.008;4.732;2023-04-03T23:30:12;3.73;;;2.90;;
19687;SDS011;9993;52.008;4.732;2023-04-03T23:38:39;4.33;;;2.70;;
19687;SDS011;9993;52.008;4.732;2023-04-03T23:41:20;3.27;;;2.60;;
19687;SDS011;9993;52.008;4.732;2023-04-03T23:44:00;3.43;;;3.10;;
19687;SDS011;9993;52.008;4.732;2023-04-03T23:50:17;3.83;;;3.10;;
19687;SDS011;9993;52.008;4.732;2023-04-03T23:55:48;5.60;;;3.47;;
